Time;durP1;ratioP1;P1;durP2;ratioP2;P2;SDS_P1;SDS_P2;PMS_P1;PMS_P2;Temp;Humidity;BMP_temperature;BMP_pressure;BME280_temperature;BME280_humidity;BME280_pressure;Samples;Min_cycle;Max_cycle;Signal;HPM_P1;HPM_P2
2022/03/18 00:02:21;;;;;;;;;19.20;19.00;;;;;9.06;58.08;103048.63;5034398;28;45606;-59
2022/03/18 00:04:47;;;;;;;;;23.80;19.80;;;;;9.06;58.23;103045.03;5037071;28;46462;-59
2022/03/18 00:07:14;;;;;;;;;19.00;18.00;;;;;8.98;58.05;103037.56;5036285;28;45421;-59
2022/03/18 00:09:41;;;;;;;;;20.80;19.40;;;;;8.72;57.66;102999.78;5037693;28;45472;-60
2022/03/18 00:12:08;;;;;;;;;23.80;18.40;;;;;8.71;58.07;102989.84;5036521;28;45666;-59
2022/03/18 00:14:34;;;;;;;;;23.40;22.00;;;;;9.01;57.45;103033.66;5037618;28;46837;-60
2022/03/18 00:17:00;;;;;;;;;21.50;21.25;;;;;8.99;57.94;103041.13;5037386;28;45309;-60
2022/03/18 00:19:27;;;;;;;;;27.00;21.00;;;;;9.02;57.46;103041.72;5037734;28;45373;-59
2022/03/18 00:22:00;;;;;;;;;29.60;18.60;;;;;8.89;58.03;103017.38;5037795;28;45565;-59
2022/03/18 00:24:25;;;;;;;;;21.20;19.40;;;;;9.04;57.61;103042.44;5037499;28;45612;-60
2022/03/18 00:26:51;;;;;;;;;23.75;20.25;;;;;9.05;58.20;103044.19;5017709;28;45461;-60
2022/03/18 00:29:17;;;;;;;;;21.50;19.50;;;;;9.00;57.69;103034.66;5034668;28;45401;-60
2022/03/18 00:31:43;;;;;;;;;21.75;17.75;;;;;8.93;58.32;103034.38;5037133;28;45156;-59
2022/03/18 00:34:10;;;;;;;;;28.80;24.80;;;;;8.82;57.75;103014.31;5052253;28;46401;-60
2022/03/18 00:36:36;;;;;;;;;32.20;24.60;;;;;8.72;58.03;103012.59;5037298;28;45428;-60
2022/03/18 00:39:02;;;;;;;;;26.40;19.20;;;;;8.82;58.40;103047.19;5037556;28;45923;-60
2022/03/18 00:41:27;;;;;;;;;20.50;20.50;;;;;8.81;58.43;103050.94;5037534;28;45804;-60
2022/03/18 00:43:53;;;;;;;;;23.00;22.25;;;;;8.81;59.24;103050.94;5037171;28;45477;-59
2022/03/18 00:46:22;;;;;;;;;29.80;25.40;;;;;8.79;58.76;103050.22;5036868;28;45408;-59
2022/03/18 00:54:18;;;;;;;;;29.60;22.20;;;;;8.60;59.19;103020.94;5036827;28;45844;-59
2022/03/18 00:56:44;;;;;;;;;25.50;22.25;;;;;8.78;58.55;103051.25;5035132;28;45407;-58
2022/03/18 00:59:10;;;;;;;;;31.00;26.00;;;;;8.08;58.82;102942.69;5037142;28;45936;-59
2022/03/18 01:01:35;;;;;;;;;25.25;20.00;;;;;8.66;58.85;103047.75;5037209;28;45333;-59
2022/03/18 01:04:01;;;;;;;;;25.50;22.50;;;;;8.65;59.61;103050.66;5052460;28;47505;-59
2022/03/18 01:06:26;;;;;;;;;33.25;27.50;;;;;8.72;59.58;103050.94;5036810;28;45459;-59
2022/03/18 01:08:52;;;;;;;;;31.00;25.75;;;;;8.70;59.19;103052.97;5037215;28;45402;-59
2022/03/18 01:11:17;;;;;;;;;28.75;25.75;;;;;8.40;58.96;103009.09;5036825;28;45344;-59
2022/03/18 01:13:43;;;;;;;;;33.25;26.50;;;;;8.53;59.77;103039.84;5036665;28;45639;-59
2022/03/18 01:16:08;;;;;;;;;37.00;30.75;;;;;8.48;59.32;103031.13;5036386;28;45398;-59
2022/03/18 01:18:34;;;;;;;;;29.00;23.25;;;;;8.56;60.53;103054.22;5036835;28;45340;-59
2022/03/18 01:20:59;;;;;;;;;33.25;27.00;;;;;8.60;60.32;103048.31;5037292;28;45337;-59
2022/03/18 01:23:25;;;;;;;;;29.25;24.75;;;;;8.56;59.87;103060.59;5036304;28;46340;-58
2022/03/18 01:25:51;;;;;;;;;26.25;25.25;;;;;8.56;59.81;103056.97;5036847;28;45405;-59
2022/03/18 01:28:16;;;;;;;;;31.25;25.50;;;;;8.51;60.67;103063.75;5036369;28;45345;-59
2022/03/18 01:30:42;;;;;;;;;36.00;30.25;;;;;8.50;60.22;103064.69;5036993;28;45210;-58
2022/03/18 01:33:07;;;;;;;;;28.75;26.25;;;;;8.51;60.15;103055.53;5036149;28;45992;-59
2022/03/18 01:35:33;;;;;;;;;34.50;29.50;;;;;8.49;60.29;103054.75;5036196;28;45311;-60
2022/03/18 01:37:58;;;;;;;;;28.50;25.75;;;;;8.16;60.87;103013.06;5036660;28;45372;-60
2022/03/18 01:40:24;;;;;;;;;31.75;25.50;;;;;8.17;60.69;103013.94;5036614;28;45293;-59
2022/03/18 01:42:49;;;;;;;;;28.75;26.25;;;;;8.40;61.04;103063.81;5068686;28;45557;-60
2022/03/18 01:45:15;;;;;;;;;32.75;26.00;;;;;8.41;61.28;103054.59;5036234;28;45396;-60
2022/03/18 01:47:43;;;;;;;;;36.50;28.25;;;;;8.47;60.57;103061.38;5036391;28;45448;-59
2022/03/18 01:50:13;;;;;;;;;26.40;25.40;;;;;8.46;60.40;103052.31;5036488;28;45615;-60
2022/03/18 01:52:38;;;;;;;;;30.00;27.00;;;;;8.31;61.18;103060.06;5034525;28;46627;-58
2022/03/18 01:55:04;;;;;;;;;35.00;24.75;;;;;8.34;60.91;103057.06;5036152;28;45437;-60
2022/03/18 01:57:30;;;;;;;;;33.40;32.00;;;;;8.37;61.21;103067.72;5035852;28;45512;-60
2022/03/18 01:59:56;;;;;;;;;41.25;32.00;;;;;7.86;61.64;102998.47;5036332;28;45360;-60
2022/03/18 02:02:22;;;;;;;;;28.80;24.00;;;;;8.30;61.00;103063.81;5034793;28;45553;-61
2022/03/18 02:04:47;;;;;;;;;23.00;21.75;;;;;8.32;61.10;103069.16;5034815;28;45380;-60
2022/03/18 02:07:13;;;;;;;;;32.25;27.50;;;;;8.25;60.80;103064.22;5036206;28;45402;-59
2022/03/18 02:09:39;;;;;;;;;33.00;29.75;;;;;8.23;61.07;103066.22;5001070;28;45524;-59
2022/03/18 02:12:05;;;;;;;;;31.75;26.75;;;;;8.11;61.28;103037.25;5066948;28;46061;-60
2022/03/18 02:14:32;;;;;;;;;33.40;26.80;;;;;7.97;60.85;103025.72;5067743;28;45408;-60
2022/03/18 02:16:57;;;;;;;;;31.80;29.80;;;;;7.90;61.58;103038.16;5067708;28;45347;-59
2022/03/18 02:19:23;;;;;;;;;33.75;30.50;;;;;7.98;61.79;103057.50;5051602;28;45319;-59
2022/03/18 02:21:49;;;;;;;;;32.25;27.25;;;;;8.03;62.01;103061.69;5035577;28;46293;-59
2022/03/18 02:24:14;;;;;;;;;34.75;28.00;;;;;8.03;61.50;103069.91;5034562;28;45368;-59
2022/03/18 02:26:40;;;;;;;;;35.75;31.00;;;;;8.03;61.04;103072.63;5034931;28;45398;-62
2022/03/18 02:29:05;;;;;;;;;34.50;29.25;;;;;7.93;61.52;103059.78;5034037;28;45682;-59
2022/03/18 02:31:31;;;;;;;;;30.50;28.75;;;;;7.94;61.65;103071.56;5050826;28;46142;-60
2022/03/18 02:33:56;;;;;;;;;34.75;29.75;;;;;8.00;61.84;103063.69;5035227;28;45384;-58
2022/03/18 02:36:22;;;;;;;;;33.00;26.25;;;;;8.03;61.32;103068.03;5068174;28;45389;-59
2022/03/18 02:38:47;;;;;;;;;30.00;28.25;;;;;7.97;61.30;103064.00;5035636;28;45370;-59
2022/03/18 02:41:13;;;;;;;;;23.25;20.50;;;;;7.96;61.88;103056.75;5035385;28;46425;-58
2022/03/18 02:43:39;;;;;;;;;32.75;26.75;;;;;7.88;61.53;103032.00;5034003;28;45440;-59
2022/03/18 02:46:05;;;;;;;;;30.25;25.00;;;;;7.94;61.51;103025.97;5035487;28;45482;-60
2022/03/18 02:48:30;;;;;;;;;32.60;26.80;;;;;8.02;62.00;103049.03;5035196;28;45805;-59
2022/03/18 02:50:56;;;;;;;;;32.25;25.50;;;;;8.04;61.68;103052.47;5035149;28;45779;-60
2022/03/18 02:53:21;;;;;;;;;37.25;32.25;;;;;8.04;61.49;103060.69;5033892;28;45369;-60
2022/03/18 02:55:47;;;;;;;;;38.25;28.75;;;;;7.97;61.28;103063.13;5035519;28;45329;-59
2022/03/18 02:58:13;;;;;;;;;32.20;30.80;;;;;7.71;61.55;103017.97;5035718;28;45496;-60
2022/03/18 03:00:38;;;;;;;;;43.00;35.50;;;;;7.73;61.75;103046.03;5033958;28;47934;-59
2022/03/18 03:03:04;;;;;;;;;35.50;30.75;;;;;7.83;61.85;103058.88;5050803;28;45239;-59
2022/03/18 03:08:14;;;;;;;;;37.00;31.00;;;;;7.65;61.78;103053.19;5035526;28;45331;-60
2022/03/18 03:10:39;;;;;;;;;40.00;35.00;;;;;7.72;62.01;103070.75;5035082;28;46762;-59
2022/03/18 03:13:06;;;;;;;;;38.00;34.75;;;;;7.73;62.14;103061.56;5035284;28;45614;-58
2022/03/18 03:15:31;;;;;;;;;37.00;33.40;;;;;7.62;62.18;103031.59;5035176;28;45436;-58
2022/03/18 03:17:57;;;;;;;;;42.50;36.50;;;;;7.90;61.95;103070.13;5035521;28;45623;-59
2022/03/18 03:20:23;;;;;;;;;36.50;29.50;;;;;7.66;61.54;103028.44;5035238;28;45739;-58
2022/03/18 03:22:48;;;;;;;;;37.25;35.25;;;;;7.87;61.85;103071.28;5034896;28;45483;-59
2022/03/18 03:25:14;;;;;;;;;33.25;31.00;;;;;7.93;61.64;103078.94;5035214;28;45357;-59
2022/03/18 03:27:39;;;;;;;;;41.50;35.75;;;;;7.93;61.16;103084.41;5035388;28;45539;-59
2022/03/18 03:30:06;;;;;;;;;43.75;36.00;;;;;7.39;61.61;103002.56;5035285;28;46485;-59
2022/03/18 03:32:32;;;;;;;;;37.80;34.80;;;;;7.84;61.39;103097.03;5034650;28;45348;-59
2022/03/18 03:34:57;;;;;;;;;49.00;39.50;;;;;7.84;61.22;103109.81;5067304;28;45329;-59
2022/03/18 03:37:23;;;;;;;;;41.75;34.00;;;;;7.83;61.46;103076.16;5035715;28;45234;-59
2022/03/18 03:39:50;;;;;;;;;47.40;40.80;;;;;7.85;61.84;103079.59;5038068;28;45408;-60
2022/03/18 03:42:16;;;;;;;;;50.00;41.40;;;;;7.89;61.45;103098.50;5070552;28;45461;-59
2022/03/18 03:44:42;;;;;;;;;44.20;39.40;;;;;7.52;61.66;103047.94;5038380;28;45407;-59
2022/03/18 03:47:07;;;;;;;;;49.00;41.25;;;;;7.77;62.23;103089.47;5038389;28;45524;-61
2022/03/18 03:49:33;;;;;;;;;43.50;39.25;;;;;7.69;62.29;103081.97;5038316;28;45375;-60
2022/03/18 03:51:58;;;;;;;;;52.25;43.50;;;;;7.67;61.97;103090.31;5037025;28;45388;-60
2022/03/18 03:54:24;;;;;;;;;53.50;42.00;;;;;7.15;61.71;103003.69;5038330;28;45337;-59
2022/03/18 03:56:49;;;;;;;;;43.75;35.50;;;;;7.68;61.71;103088.47;5009811;28;46604;-59
2022/03/18 03:59:15;;;;;;;;;59.25;41.50;;;;;7.67;61.73;103095.78;5035431;28;45579;-60
2022/03/18 04:01:40;;;;;;;;;44.75;41.00;;;;;7.64;61.58;103090.59;5037885;28;45368;-60
2022/03/18 04:04:06;;;;;;;;;32.00;31.00;;;;;7.64;61.20;103104.25;5037898;28;45428;-58
2022/03/18 04:06:32;;;;;;;;;36.25;31.75;;;;;7.54;61.88;103100.59;5038199;28;45555;-58
2022/03/18 04:08:58;;;;;;;;;42.00;37.80;;;;;7.56;61.50;103115.84;5037408;28;46797;-59
2022/03/18 04:11:23;;;;;;;;;41.00;33.25;;;;;7.54;61.11;103101.47;5036421;28;45377;-59
2022/03/18 04:13:49;;;;;;;;;37.25;29.25;;;;;7.69;61.42;103121.09;5037761;28;45811;-59
2022/03/18 04:16:15;;;;;;;;;40.50;32.75;;;;;7.59;61.09;103114.72;5037795;28;45552;-60
2022/03/18 04:18:41;;;;;;;;;33.20;31.80;;;;;7.55;60.65;103115.97;5037533;28;45665;-59
2022/03/18 04:21:06;;;;;;;;;35.00;26.75;;;;;7.57;61.03;103114.84;5037669;28;45512;-59
2022/03/18 04:23:32;;;;;;;;;37.00;31.75;;;;;7.52;60.82;103099.88;5037621;28;45522;-60
2022/03/18 04:25:57;;;;;;;;;41.75;35.00;;;;;7.57;60.84;103111.22;5019846;28;45421;-59
2022/03/18 04:28:23;;;;;;;;;30.00;29.75;;;;;7.58;60.75;103116.56;5036446;28;46379;-60
2022/03/18 04:30:48;;;;;;;;;29.50;27.75;;;;;7.55;60.64;103129.66;5036114;28;45447;-60
2022/03/18 04:33:14;;;;;;;;;31.50;29.25;;;;;7.57;60.91;103138.56;5037569;28;45385;-62
2022/03/18 04:35:39;;;;;;;;;29.00;24.00;;;;;7.59;60.97;103131.97;5036262;28;45661;-60
2022/03/18 04:38:05;;;;;;;;;36.75;29.75;;;;;7.65;60.90;103135.19;5037471;28;46191;-59
2022/03/18 04:40:32;;;;;;;;;33.00;29.25;;;;;7.58;60.96;103129.41;5037382;28;45389;-59
2022/03/18 04:42:57;;;;;;;;;33.20;28.20;;;;;7.14;61.00;103081.19;5037234;28;45292;-59
2022/03/18 04:45:23;;;;;;;;;29.25;26.75;;;;;7.52;60.62;103140.84;5037617;28;45571;-59
2022/03/18 04:47:48;;;;;;;;;29.75;28.25;;;;;7.59;61.15;103147.53;5036636;28;45356;-60
2022/03/18 04:50:14;;;;;;;;;30.75;27.75;;;;;7.62;60.47;103149.97;5036241;28;45404;-59
2022/03/18 04:52:39;;;;;;;;;32.75;31.25;;;;;7.64;60.36;103145.25;5037510;28;45313;-59
2022/03/18 04:55:05;;;;;;;;;36.50;32.50;;;;;7.67;60.55;103147.72;5037155;28;45405;-58
2022/03/18 04:57:31;;;;;;;;;30.00;28.60;;;;;7.60;59.89;103149.25;5036974;28;45429;-59
2022/03/18 04:59:57;;;;;;;;;29.25;25.25;;;;;7.54;60.47;103149.78;5069352;28;45986;-59
2022/03/18 05:02:24;;;;;;;;;26.20;22.80;;;;;7.52;60.06;103147.16;5037376;27;45371;-59
2022/03/18 05:04:50;;;;;;;;;31.20;24.00;;;;;7.54;60.22;103145.19;5037199;28;45427;-59
2022/03/18 05:07:15;;;;;;;;;37.00;30.75;;;;;7.49;60.27;103133.78;5037035;28;45271;-59
2022/03/18 05:09:41;;;;;;;;;31.00;27.00;;;;;7.53;60.50;103140.69;5037215;28;45314;-60
2022/03/18 05:12:11;;;;;;;;;31.25;27.25;;;;;7.48;59.78;103153.91;5069043;28;45374;-60
2022/03/18 05:14:38;;;;;;;;;34.60;28.00;;;;;7.42;59.80;103154.44;5036027;28;45579;-60
2022/03/18 05:17:04;;;;;;;;;28.00;24.20;;;;;7.41;59.91;103167.22;5068871;28;45566;-60
2022/03/18 05:19:30;;;;;;;;;27.50;25.25;;;;;7.48;59.65;103173.06;5052253;28;45447;-60
2022/03/18 05:21:55;;;;;;;;;31.60;25.20;;;;;7.39;60.35;103168.34;5035623;28;45337;-60
2022/03/18 05:24:21;;;;;;;;;26.00;20.00;;;;;7.45;59.75;103178.75;5037021;28;45507;-59
2022/03/18 05:26:47;;;;;;;;;30.00;26.75;;;;;7.46;59.27;103167.72;5036919;28;46042;-60
2022/03/18 05:29:13;;;;;;;;;30.25;25.25;;;;;7.31;59.67;103144.44;5037016;28;45294;-60
2022/03/18 05:31:39;;;;;;;;;28.20;22.20;;;;;7.40;59.66;103168.22;5037270;28;45758;-59
2022/03/18 05:34:05;;;;;;;;;20.50;19.00;;;;;7.40;59.44;103179.16;5069121;27;45598;-61
2022/03/18 05:36:31;;;;;;;;;32.00;26.00;;;;;7.37;59.41;103184.03;5036140;28;46900;-60
2022/03/18 05:38:56;;;;;;;;;26.00;22.75;;;;;7.11;59.34;103141.53;5036769;28;45326;-59
2022/03/18 05:41:22;;;;;;;;;28.75;26.75;;;;;7.37;59.21;103193.06;5051985;28;45353;-60
2022/03/18 05:43:47;;;;;;;;;22.25;19.75;;;;;7.39;59.16;103191.09;5036955;28;45505;-60
2022/03/18 05:46:13;;;;;;;;;25.00;23.50;;;;;7.16;58.54;103152.91;5036292;28;45483;-59
2022/03/18 05:48:38;;;;;;;;;29.50;27.25;;;;;7.30;58.62;103186.41;5036028;28;45306;-60
2022/03/18 05:51:04;;;;;;;;;26.75;21.75;;;;;7.30;59.20;103189.13;5036614;28;45397;-64
2022/03/18 05:53:30;;;;;;;;;23.50;19.50;;;;;7.14;59.16;103154.94;5036875;28;45665;-60
2022/03/18 05:58:42;;;;;;;;;27.00;21.80;;;;;7.28;59.34;103192.00;5063892;28;45363;-59
2022/03/18 06:01:10;;;;;;;;;12.50;12.50;;;;;7.33;58.81;103184.25;5034919;28;45831;-60
2022/03/18 06:03:36;;;;;;;;;25.40;24.80;;;;;7.12;58.93;103154.19;5051546;28;45438;-60
2022/03/18 06:06:01;;;;;;;;;15.50;14.75;;;;;7.24;57.80;103182.31;5034630;28;45381;-60
2022/03/18 06:11:56;;;;;;;;;25.20;24.20;;;;;6.97;58.22;103159.06;5036057;28;45453;-60
2022/03/18 06:13:56;;;;;;;;;23.80;21.20;;;;;7.08;57.09;103199.13;5038630;28;45642;-58
2022/03/18 06:16:22;;;;;;;;;19.25;17.75;;;;;7.14;58.16;103201.34;5035466;28;45479;-59
2022/03/18 06:18:47;;;;;;;;;24.75;24.25;;;;;7.13;58.07;103199.63;5035763;28;45407;-60
2022/03/18 06:21:15;;;;;;;;;18.75;18.25;;;;;7.19;58.14;103198.22;5036167;28;45488;-59
2022/03/18 06:23:40;;;;;;;;;25.00;22.60;;;;;7.22;58.01;103199.84;5036014;28;45530;-59
2022/03/18 06:26:06;;;;;;;;;26.75;25.00;;;;;7.23;57.95;103213.38;5035524;28;46887;-59
2022/03/18 06:28:32;;;;;;;;;27.00;22.25;;;;;7.27;58.59;103203.06;5035601;28;45340;-60
2022/03/18 06:30:58;;;;;;;;;33.00;28.75;;;;;7.16;57.50;103191.16;5035554;28;45382;-60
2022/03/18 06:33:23;;;;;;;;;23.40;20.40;;;;;6.46;58.27;103087.72;5035828;28;45387;-60
2022/03/18 06:35:49;;;;;;;;;24.00;23.25;;;;;7.09;57.46;103195.41;5034116;28;45892;-59
2022/03/18 06:38:14;;;;;;;;;28.00;23.50;;;;;7.04;58.44;103208.56;5035615;28;45278;-59
2022/03/18 06:40:40;;;;;;;;;28.75;24.75;;;;;7.08;58.54;103214.63;5035668;28;45369;-60
2022/03/18 06:43:06;;;;;;;;;28.50;23.50;;;;;7.03;58.07;103201.38;5035621;28;45365;-59
2022/03/18 06:45:32;;;;;;;;;12.50;10.50;;;;;7.01;57.63;103214.31;5035103;28;45427;-60
2022/03/18 06:47:57;;;;;;;;;23.75;22.25;;;;;6.98;57.77;103215.41;5035049;28;45544;-60
2022/03/18 06:50:24;;;;;;;;;34.00;27.75;;;;;6.96;57.81;103214.69;5035924;28;45463;-60
2022/03/18 06:52:50;;;;;;;;;26.80;22.00;;;;;6.99;58.90;103219.88;5035349;28;45555;-59
2022/03/18 06:55:16;;;;;;;;;28.75;25.25;;;;;6.88;58.09;103196.19;5035155;28;46275;-60
2022/03/18 06:57:42;;;;;;;;;21.50;21.50;;;;;7.00;58.79;103205.22;5034993;28;45283;-60
2022/03/18 07:00:08;;;;;;;;;27.60;25.20;;;;;6.93;58.73;103195.81;5035009;28;45513;-61
2022/03/18 07:02:34;;;;;;;;;33.60;28.20;;;;;6.80;58.28;103179.59;5033884;28;45378;-60
2022/03/18 07:04:59;;;;;;;;;34.25;25.50;;;;;7.03;58.22;103206.84;5035046;28;46333;-61
2022/03/18 07:07:25;;;;;;;;;28.75;23.75;;;;;7.09;58.31;103200.00;5034954;28;45369;-61
2022/03/18 07:09:50;;;;;;;;;31.00;26.25;;;;;7.00;58.17;103179.81;5035485;28;45629;-60
2022/03/18 07:12:16;;;;;;;;;31.75;27.25;;;;;7.24;57.34;103214.22;5036367;28;45515;-60
2022/03/18 07:14:42;;;;;;;;;24.75;22.50;;;;;6.96;58.48;103176.47;5038563;28;46702;-60
2022/03/18 07:19:52;;;;;;;;;24.40;22.60;;;;;7.22;57.14;103217.13;5038752;28;45369;-59
2022/03/18 07:22:18;;;;;;;;;23.40;23.40;;;;;7.12;57.69;103199.75;5038695;28;45501;-60
2022/03/18 07:24:44;;;;;;;;;22.40;21.80;;;;;7.26;57.68;103199.44;5038082;28;45377;-60
2022/03/18 07:27:10;;;;;;;;;21.75;21.50;;;;;7.33;57.45;103205.28;5036973;28;45529;-60
2022/03/18 07:29:35;;;;;;;;;26.50;21.25;;;;;7.37;57.07;103219.53;5037021;28;45380;-61
2022/03/18 07:32:01;;;;;;;;;26.25;23.75;;;;;7.39;56.99;103212.06;5038367;28;45328;-60
2022/03/18 07:34:26;;;;;;;;;27.25;24.25;;;;;7.25;56.92;103181.31;5038299;28;46464;-60
2022/03/18 07:36:52;;;;;;;;;28.00;23.25;;;;;7.50;56.98;103219.34;5038195;28;45408;-59
2022/03/18 07:39:18;;;;;;;;;24.00;22.00;;;;;7.42;57.03;103200.91;5037170;28;45239;-60
2022/03/18 07:41:43;;;;;;;;;24.50;23.25;;;;;7.53;57.13;103210.91;5038453;28;45338;-60
2022/03/18 07:44:09;;;;;;;;;29.00;23.25;;;;;7.59;56.99;103211.22;5036623;28;45367;-59
2022/03/18 07:46:34;;;;;;;;;31.00;24.75;;;;;7.55;56.08;103217.97;5036824;28;45329;-60
2022/03/18 07:49:01;;;;;;;;;20.25;19.75;;;;;7.28;56.06;103181.09;5038080;28;45392;-61
2022/03/18 07:51:26;;;;;;;;;27.00;26.40;;;;;7.20;56.20;103150.78;5004905;28;45939;-60
2022/03/18 07:53:52;;;;;;;;;26.50;20.75;;;;;7.69;55.56;103226.88;5070330;27;47193;-60
2022/03/18 07:56:17;;;;;;;;;23.50;22.50;;;;;7.40;55.70;103168.22;5037826;28;45509;-58
2022/03/18 07:58:43;;;;;;;;;23.00;21.25;;;;;7.72;55.18;103223.84;5036953;28;45424;-59
2022/03/18 08:01:10;;;;;;;;;21.50;17.50;;;;;7.80;55.47;103223.22;5037952;28;45460;-58
2022/03/18 08:03:35;;;;;;;;;26.00;23.20;;;;;7.81;55.05;103222.19;5037549;28;46408;-60
2022/03/18 08:06:01;;;;;;;;;20.50;19.25;;;;;7.74;55.72;103199.97;5036261;28;46052;-53
2022/03/18 08:08:27;;;;;;;;;26.75;24.75;;;;;7.90;55.22;103221.38;5037860;28;45419;-59
2022/03/18 08:10:52;;;;;;;;;25.25;21.75;;;;;7.96;54.95;103223.59;5037673;28;45373;-59
2022/03/18 08:13:17;;;;;;;;;29.00;26.00;;;;;8.02;54.84;103226.81;5037477;28;45625;-58
2022/03/18 08:15:44;;;;;;;;;29.50;23.25;;;;;8.07;54.46;103230.84;5036242;28;45356;-59
2022/03/18 08:18:10;;;;;;;;;28.80;22.60;;;;;8.05;54.38;103224.66;5036579;28;45406;-55
2022/03/18 08:20:40;;;;;;;;;27.50;22.25;;;;;8.05;54.18;103227.41;5070231;28;45408;-56
2022/03/18 08:23:12;;;;;;;;;27.40;23.20;;;;;8.05;53.47;103221.06;5036900;28;46331;-54
2022/03/18 08:25:38;;;;;;;;;27.20;21.00;;;;;8.06;54.36;103225.53;5051694;28;45468;-59
2022/03/18 08:28:05;;;;;;;;;20.00;18.25;;;;;8.10;53.55;103233.34;5056262;27;45502;-60
2022/03/18 08:30:31;;;;;;;;;31.60;25.00;;;;;7.84;53.15;103200.03;5064188;27;45656;-62
2022/03/18 08:32:56;;;;;;;;;26.20;20.60;;;;;8.07;52.73;103243.69;5061678;28;45516;-59
2022/03/18 08:35:22;;;;;;;;;23.25;19.75;;;;;8.08;53.28;103245.41;5013137;28;45583;-59
2022/03/18 08:37:56;;;;;;;;;27.50;22.75;;;;;8.11;53.87;103232.34;4995588;28;45563;-61
2022/03/18 08:40:26;;;;;;;;;23.80;23.40;;;;;7.92;53.32;103189.31;5014635;28;45421;-60
2022/03/18 08:42:52;;;;;;;;;31.40;24.80;;;;;8.26;52.37;103232.84;5064278;28;46454;-61
2022/03/18 08:45:18;;;;;;;;;22.75;17.50;;;;;8.34;52.84;103236.78;5032751;28;45441;-61
2022/03/18 08:47:44;;;;;;;;;22.00;19.75;;;;;8.40;51.85;103248.03;5031602;28;45931;-62
2022/03/18 08:50:10;;;;;;;;;26.75;23.25;;;;;8.43;51.33;103246.06;5033048;28;45524;-60
2022/03/18 08:52:36;;;;;;;;;21.40;21.40;;;;;8.30;51.72;103210.69;5031366;28;46637;-62
2022/03/18 08:55:01;;;;;;;;;23.50;22.75;;;;;8.55;51.58;103231.31;5000955;28;45844;-62
2022/03/18 08:57:33;;;;;;;;;24.50;20.50;;;;;8.58;51.41;103220.06;5064745;28;45397;-61
2022/03/18 08:59:59;;;;;;;;;22.60;21.40;;;;;8.71;50.72;103235.41;5032917;28;45473;-62
2022/03/18 09:02:24;;;;;;;;;18.25;17.50;;;;;8.77;49.87;103229.38;5031045;28;48559;-64
2022/03/18 09:04:51;;;;;;;;;26.75;20.00;;;;;8.82;51.35;103225.19;5029910;28;45496;-60
2022/03/18 09:07:17;;;;;;;;;19.80;14.00;;;;;8.86;49.97;103231.25;5032755;28;45460;-60
2022/03/18 09:09:43;;;;;;;;;17.00;16.40;;;;;8.86;49.27;103231.25;5064515;28;45501;-60
2022/03/18 09:12:08;;;;;;;;;25.25;20.75;;;;;8.82;49.30;103227.94;5030856;28;45557;-60
2022/03/18 09:14:34;;;;;;;;;18.50;15.25;;;;;8.90;47.68;103235.47;5031858;28;45488;-60
2022/03/18 09:16:59;;;;;;;;;20.75;16.00;;;;;8.81;48.24;103220.72;5031037;28;45291;-63
2022/03/18 09:19:25;;;;;;;;;25.25;21.50;;;;;8.84;48.36;103202.28;5047795;28;45800;-61
2022/03/18 09:21:51;;;;;;;;;21.20;17.00;;;;;9.13;48.81;103234.38;5064046;28;45727;-61
2022/03/18 09:24:17;;;;;;;;;18.25;17.00;;;;;9.17;49.00;103235.81;5030798;28;45528;-62
2022/03/18 09:26:42;;;;;;;;;18.00;16.25;;;;;9.30;48.60;103236.44;5064370;28;45455;-59
2022/03/18 09:29:08;;;;;;;;;13.75;13.75;;;;;9.30;46.99;103230.06;5031149;28;45880;-60
2022/03/18 09:31:33;;;;;;;;;21.50;20.25;;;;;9.33;46.22;103225.16;5030077;28;45481;-61
2022/03/18 09:33:59;;;;;;;;;20.75;13.25;;;;;9.44;45.43;103237.03;5031964;28;45554;-60
2022/03/18 09:36:24;;;;;;;;;18.50;13.00;;;;;9.46;45.57;103230.34;5031966;28;45448;-57
2022/03/18 09:38:50;;;;;;;;;11.00;11.00;;;;;9.53;46.03;103238.00;5030824;28;45645;-60
2022/03/18 09:41:16;;;;;;;;;12.00;12.00;;;;;9.60;43.79;103231.81;5030552;27;47251;-59
2022/03/18 09:43:42;;;;;;;;;17.20;16.40;;;;;9.72;45.17;103234.41;5047085;28;45453;-59
2022/03/18 09:46:12;;;;;;;;;14.50;12.00;;;;;9.80;42.61;103240.03;5032035;28;45401;-60
2022/03/18 09:48:38;;;;;;;;;16.40;13.00;;;;;9.88;42.54;103222.84;5030509;28;45484;-58
2022/03/18 09:51:04;;;;;;;;;17.20;13.00;;;;;9.76;41.48;103198.31;5031727;28;46315;-60
2022/03/18 09:53:29;;;;;;;;;12.50;10.00;;;;;9.84;41.81;103214.06;5030183;28;46001;-60
2022/03/18 09:55:55;;;;;;;;;14.25;11.75;;;;;9.90;41.95;103201.63;4984885;28;45468;-62
2022/03/18 09:58:21;;;;;;;;;19.50;18.25;;;;;10.23;42.23;103242.41;5031050;28;45539;-60
2022/03/18 10:00:50;;;;;;;;;16.40;13.40;;;;;10.30;40.91;103238.94;5063415;28;46802;-60
2022/03/18 10:03:17;;;;;;;;;14.40;13.80;;;;;10.43;40.87;103227.66;5030493;28;46002;-57
2022/03/18 10:05:54;;;;;;;;;17.80;15.40;;;;;10.35;39.63;103197.31;5030748;28;45449;-59
2022/03/18 10:08:21;;;;;;;;;17.60;13.20;;;;;10.61;39.09;103245.22;5032064;28;45565;-57
2022/03/18 10:10:47;;;;;;;;;13.00;11.40;;;;;10.66;38.74;103232.78;5031822;28;45972;-58
2022/03/18 10:13:13;;;;;;;;;12.20;10.20;;;;;10.79;40.00;103228.81;5029928;28;45851;-59
2022/03/18 10:15:38;;;;;;;;;19.00;12.75;;;;;10.91;39.79;103229.47;5032652;28;45688;-60
2022/03/18 10:18:04;;;;;;;;;15.75;12.00;;;;;11.07;38.83;103228.78;5035612;28;45459;-54
2022/03/18 10:20:35;;;;;;;;;15.00;12.80;;;;;11.09;39.45;103227.63;5024235;28;45781;-51
2022/03/18 10:23:16;;;;;;;;;14.40;11.80;;;;;11.17;37.81;103229.59;5046292;28;45540;-54
2022/03/18 10:25:51;;;;;;;;;15.00;11.60;;;;;11.29;38.37;103227.47;5020899;28;45557;-54
2022/03/18 10:28:43;;;;;;;;;14.60;13.20;;;;;11.40;38.54;103226.38;5034144;28;45432;-58
2022/03/18 10:31:21;;;;;;;;;11.20;11.20;;;;;11.50;37.76;103209.81;5033571;28;45917;-52
2022/03/18 10:39:25;;;;;;;;;15.40;12.80;;;;;11.65;36.42;103213.72;5061868;28;45404;-56
2022/03/18 10:41:51;;;;;;;;;14.80;12.20;;;;;11.71;34.49;103201.22;5032894;28;46360;-58
2022/03/18 10:44:17;;;;;;;;;12.20;8.80;;;;;11.82;34.36;103210.25;5031632;28;46483;-60
2022/03/18 10:46:43;;;;;;;;;13.75;9.00;;;;;11.85;35.56;103196.19;5033465;28;45398;-60
2022/03/18 10:49:10;;;;;;;;;10.25;9.00;;;;;12.01;35.33;103210.03;5035186;28;45686;-58
2022/03/18 10:51:36;;;;;;;;;14.40;9.40;;;;;12.14;34.58;103203.28;5035093;28;46291;-59
2022/03/18 10:54:01;;;;;;;;;8.25;8.25;;;;;12.25;33.43;103197.50;5050347;28;45931;-59
2022/03/18 10:56:27;;;;;;;;;7.75;7.25;;;;;12.30;34.48;103186.00;5023829;28;45523;-58
2022/03/18 10:58:52;;;;;;;;;8.75;8.00;;;;;12.19;34.66;103162.38;5066039;28;45351;-60
2022/03/18 11:01:21;;;;;;;;;8.50;8.00;;;;;12.47;32.35;103182.31;5034377;28;46900;-61
2022/03/18 11:03:46;;;;;;;;;8.00;7.20;;;;;12.51;33.07;103166.31;5067450;28;45367;-59
2022/03/18 11:06:12;;;;;;;;;8.00;8.00;;;;;12.66;32.59;103185.84;5034089;28;45499;-61
2022/03/18 11:08:48;;;;;;;;;9.75;8.25;;;;;12.57;31.98;103151.00;5050838;28;45446;-61
2022/03/18 11:11:18;;;;;;;;;8.40;8.00;;;;;12.91;32.68;103185.91;5035107;28;45489;-59
2022/03/18 11:14:03;;;;;;;;;9.80;9.80;;;;;12.98;31.91;103186.09;5033716;28;45399;-59
2022/03/18 11:16:35;;;;;;;;;10.00;7.40;;;;;13.06;30.92;103191.63;5050678;28;45391;-56
2022/03/18 11:19:04;;;;;;;;;8.40;6.20;;;;;13.15;30.22;103196.13;5047467;28;45498;-59
2022/03/18 11:21:36;;;;;;;;;8.40;8.00;;;;;13.10;29.82;103176.47;5014069;28;46407;-59
2022/03/18 11:24:15;;;;;;;;;13.20;12.40;;;;;13.23;31.15;103178.72;5022667;28;45832;-62
2022/03/18 11:26:48;;;;;;;;;11.00;11.00;;;;;13.25;32.82;103162.03;5029615;28;45565;-62
2022/03/18 11:29:16;;;;;;;;;13.60;11.00;;;;;13.46;32.75;103174.47;5029283;28;45413;-58
2022/03/18 11:31:42;;;;;;;;;13.00;10.60;;;;;13.64;32.17;103177.06;5030869;28;45563;-65
2022/03/18 11:34:15;;;;;;;;;9.75;9.75;;;;;13.66;31.32;103192.41;5063072;28;45684;-59
2022/03/18 11:36:45;;;;;;;;;12.00;10.00;;;;;13.70;31.58;103181.88;5028016;28;45383;-62